Date,TemperatureHighF,TemperatureAvgF,TemperatureLowF,DewpointHighF,DewpointAvgF,DewpointLowF,HumidityHigh,HumidityAvg,HumidityLow,PressureMaxIn,PressureMinIn,WindSpeedMaxMPH,WindSpeedAvgMPH,GustSpeedMaxMPH,PrecipitationSumIn
2013-6-1,74,60,43,41,39,34,87,50,26,0.00,40.00,13,6,21,0.00
2013-6-2,75,60,41,45,36,28,96,49,18,0.00,40.00,9,6,19,0.00
2013-6-3,79,60,40,44,37,30,89,48,17,0.00,40.00,10,6,15,0.00
2013-6-4,83,66,47,47,41,34,77,44,18,0.00,40.00,8,6,15,0.00
2013-6-5,85,68,49,47,41,35,62,39,20,0.00,40.00,10,6,17,0.00
2013-6-6,85,67,49,53,46,38,85,52,20,0.00,40.00,11,6,18,0.00
2013-6-7,84,68,51,53,49,33,95,55,18,0.00,40.00,12,7,20,0.00
2013-6-8,88,69,50,51,42,31,82,44,16,0.00,40.00,11,6,17,0.00
2013-6-9,86,71,53,48,44,37,70,42,19,0.00,40.00,12,7,20,0.00
2013-6-10,78,65,53,45,36,28,69,38,20,0.00,40.00,15,8,28,0.00
2013-6-11,65,55,41,41,35,27,82,50,24,0.00,40.00,14,7,23,0.00
2013-6-12,63,50,32,34,32,30,94,56,29,0.00,40.00,13,7,22,0.00
2013-6-13,58,46,31,35,33,30,95,63,37,0.00,40.00,13,6,24,0.00
2013-6-14,71,52,31,36,30,25,96,52,18,0.00,40.00,9,5,16,0.00
2013-6-15,78,60,35,43,33,26,74,41,17,0.00,40.00,12,6,21,0.00
2013-6-16,76,62,45,48,42,34,90,52,22,0.00,40.00,14,7,24,0.00
2013-6-17,73,57,42,46,42,38,93,60,28,0.00,40.00,14,7,24,0.00
2013-6-18,62,52,43,42,37,28,86,60,29,0.00,40.00,16,7,25,0.00
2013-6-19,52,44,37,41,36,34,92,74,56,0.00,40.00,11,8,24,0.05
2013-6-20,58,42,31,36,34,31,98,76,41,0.00,40.00,8,4,14,0.04
2013-6-22,74,65,48,43,39,35,72,41,27,0.00,40.00,11,6,19,0.00
2013-6-23,65,56,50,54,48,41,95,77,53,0.00,40.00,18,4,36,0.21
2013-6-24,53,49,46,50,46,43,96,89,77,0.00,40.00,7,4,16,0.39
2013-6-25,58,53,48,51,47,44,91,80,68,0.00,40.00,12,6,32,0.09
2013-6-26,71,60,49,55,52,46,97,75,52,0.00,40.00,10,6,21,0.02
2013-6-27,84,66,49,54,51,47,96,64,30,0.00,40.00,8,4,14,0.01
2013-6-28,89,72,54,56,52,47,91,55,24,0.00,40.00,13,6,19,0.00
2013-6-29,86,72,56,57,52,44,94,55,24,0.00,40.00,12,5,20,0.00
2013-6-30,93,74,56,59,52,42,84,52,17,0.00,40.00,11,6,17,0.00